Time;durP1;ratioP1;P1;durP2;ratioP2;P2;SDS_P1;SDS_P2;PMS_P1;PMS_P2;Temp;Humidity;BMP_temperature;BMP_pressure;BME280_temperature;BME280_humidity;BME280_pressure;Samples;Min_cycle;Max_cycle;Signal;HPM_P1;HPM_P2
2022/05/27 00:02:00;;;;;;;1.50;1.10;;;;;;;19.16;66.18;100788.72;5589967;31;34751;-68
2022/05/27 00:05:04;;;;;;;1.15;0.80;;;;;;;19.10;66.13;100793.91;5589951;31;33952;-67
2022/05/27 00:08:08;;;;;;;2.92;0.93;;;;;;;19.09;66.67;100789.56;5589813;31;33938;-68
2022/05/27 00:11:14;;;;;;;1.80;0.90;;;;;;;19.07;66.95;100786.25;5589034;31;34054;-67
2022/05/27 00:14:17;;;;;;;1.75;0.80;;;;;;;19.08;65.43;100781.69;5590069;31;33937;-68
2022/05/27 00:17:20;;;;;;;1.10;0.90;;;;;;;19.14;65.51;100772.78;5589346;31;34304;-68
2022/05/27 00:20:23;;;;;;;1.08;0.77;;;;;;;19.10;65.68;100768.87;5589815;31;33975;-68
2022/05/27 00:23:26;;;;;;;1.65;0.93;;;;;;;19.18;65.97;100763.25;5589873;31;34542;-68
2022/05/27 00:26:29;;;;;;;1.52;0.90;;;;;;;19.12;66.41;100766.00;5589855;31;34306;-68
2022/05/27 00:29:32;;;;;;;1.00;0.88;;;;;;;19.12;65.98;100760.59;5589642;31;34636;-68
2022/05/27 00:32:55;;;;;;;0.98;0.80;;;;;;;19.08;66.24;100761.00;5588926;31;34696;-68
2022/05/27 00:35:57;;;;;;;1.80;0.80;;;;;;;19.08;66.34;100757.50;5589905;31;34015;-68
2022/05/27 00:39:02;;;;;;;2.75;0.85;;;;;;;19.03;66.67;100752.75;5589564;31;34571;-67
2022/05/27 00:42:05;;;;;;;1.27;0.80;;;;;;;19.03;66.97;100760.00;5589512;31;34780;-68
2022/05/27 00:45:24;;;;;;;1.40;0.80;;;;;;;19.10;67.89;100758.94;5589519;31;34514;-67
2022/05/27 00:48:27;;;;;;;1.45;0.98;;;;;;;19.34;66.93;100754.69;5589778;31;33917;-68
2022/05/27 00:51:34;;;;;;;1.05;0.80;;;;;;;19.30;67.15;100758.84;5589362;31;34014;-68
2022/05/27 00:54:37;;;;;;;3.05;0.90;;;;;;;19.14;67.48;100756.66;5589474;31;33908;-68
2022/05/27 00:57:44;;;;;;;2.08;0.70;;;;;;;19.07;66.95;100763.94;5588867;31;34537;-67
2022/05/27 01:00:48;;;;;;;1.00;0.90;;;;;;;18.94;67.59;100756.72;5588615;31;35148;-68
2022/05/27 01:03:51;;;;;;;3.85;0.90;;;;;;;18.94;67.60;100754.03;5589599;31;34624;-68
2022/05/27 01:06:54;;;;;;;1.45;0.88;;;;;;;19.14;66.95;100759.34;5589258;31;34090;-67
2022/05/27 01:10:00;;;;;;;0.70;0.60;;;;;;;18.88;67.98;100759.47;5589072;31;33914;-67
2022/05/27 01:13:31;;;;;;;1.20;0.90;;;;;;;18.80;67.90;100760.50;5588738;31;34083;-68
2022/05/27 01:16:49;;;;;;;1.90;0.80;;;;;;;18.73;68.75;100757.03;5589114;31;34831;-68
2022/05/27 01:20:19;;;;;;;1.52;0.82;;;;;;;18.73;69.19;100754.34;5589033;31;34564;-68
2022/05/27 01:24:07;;;;;;;2.85;0.80;;;;;;;18.66;69.65;100750.84;5589003;31;33991;-68
2022/05/27 01:27:45;;;;;;;1.60;0.90;;;;;;;18.60;70.58;100754.38;5588795;31;34031;-68
2022/05/27 01:31:04;;;;;;;0.85;0.80;;;;;;;18.53;71.41;100749.03;5588660;31;34393;-68
2022/05/27 01:34:07;;;;;;;;;;;;;;;18.55;71.36;100752.31;5588366;31;34033;-68
2022/05/27 01:37:26;;;;;;;1.10;0.75;;;;;;;18.42;71.29;100746.94;5589229;31;34201;-68
2022/05/27 01:41:10;;;;;;;2.28;0.98;;;;;;;18.32;72.39;100746.56;5588801;31;34033;-68
2022/05/27 01:44:21;;;;;;;1.65;0.98;;;;;;;18.25;72.52;100746.56;5571593;31;34600;-68
2022/05/27 01:47:36;;;;;;;1.73;0.88;;;;;;;18.14;72.73;100743.69;5588496;31;34410;-68
2022/05/27 01:51:00;;;;;;;3.03;0.80;;;;;;;18.06;73.67;100749.25;5588778;31;33911;-68
2022/05/27 01:54:12;;;;;;;1.48;0.85;;;;;;;18.12;72.74;100746.56;5588034;31;32352;-68
2022/05/27 01:57:21;;;;;;;2.53;0.88;;;;;;;18.10;72.71;100740.59;5588396;31;33998;-67
2022/05/27 02:00:26;;;;;;;1.73;0.83;;;;;;;17.96;73.46;100743.50;5588462;31;34141;-68
2022/05/27 02:03:45;;;;;;;1.10;0.73;;;;;;;17.89;73.06;100734.59;5588725;31;33749;-67
2022/05/27 02:06:58;;;;;;;1.27;0.73;;;;;;;17.78;74.37;100744.09;5588215;31;35321;-68
2022/05/27 02:10:10;;;;;;;3.33;0.90;;;;;;;17.62;75.06;100742.63;5590341;31;34042;-68
2022/05/27 02:13:21;;;;;;;1.20;0.70;;;;;;;17.54;75.73;100741.97;5590176;31;34237;-68
2022/05/27 02:16:32;;;;;;;8.38;1.60;;;;;;;17.57;75.71;100745.06;5590816;31;34589;-68
2022/05/27 02:19:39;;;;;;;6.35;1.23;;;;;;;17.55;79.81;100747.16;5590629;31;34507;-68
2022/05/27 02:22:54;;;;;;;2.85;0.80;;;;;;;17.32;78.58;100742.16;5589989;31;34408;-68
2022/05/27 02:26:02;;;;;;;2.65;0.82;;;;;;;17.28;78.03;100750.81;5590655;31;35292;-68
2022/05/27 02:29:15;;;;;;;1.45;0.98;;;;;;;17.26;78.63;100753.69;5584834;31;183752;-68
2022/05/27 02:32:38;;;;;;;1.90;0.95;;;;;;;17.18;77.74;100742.34;5590440;31;33940;-68
2022/05/27 02:35:44;;;;;;;1.73;0.95;;;;;;;16.97;79.70;100753.16;5590613;31;34042;-68
2022/05/27 02:38:48;;;;;;;3.05;0.90;;;;;;;16.84;79.95;100748.59;5589806;31;34577;-68
2022/05/27 02:41:58;;;;;;;1.15;0.82;;;;;;;16.74;80.26;100742.78;5590578;31;34565;-68
2022/05/27 02:45:17;;;;;;;4.20;1.20;;;;;;;16.62;80.63;100741.66;5590886;31;34375;-67
2022/05/27 02:48:43;;;;;;;5.60;0.80;;;;;;;16.47;81.44;100747.12;5590578;31;34343;-68
2022/05/27 02:52:04;;;;;;;3.42;0.90;;;;;;;16.36;82.74;100745.81;5590302;31;34490;-68
2022/05/27 02:55:15;;;;;;;1.70;0.95;;;;;;;16.25;82.85;100743.69;5590587;31;33836;-68
2022/05/27 02:58:18;;;;;;;2.40;1.00;;;;;;;16.24;83.00;100742.03;5589662;31;34639;-68
2022/05/27 03:01:21;;;;;;;2.10;1.05;;;;;;;16.19;83.60;100755.19;5590385;31;34578;-68
2022/05/27 03:04:24;;;;;;;1.77;1.05;;;;;;;16.17;84.02;100751.06;5590357;31;34098;-68
2022/05/27 03:08:15;;;;;;;1.60;0.90;;;;;;;16.26;83.88;100756.06;5590319;31;33886;-68
2022/05/27 03:11:28;;;;;;;2.05;0.90;;;;;;;16.20;83.43;100746.13;5590143;31;33900;-67
2022/05/27 03:14:50;;;;;;;2.25;0.80;;;;;;;16.19;82.59;100751.66;5590296;31;34478;-68
2022/05/27 03:18:16;;;;;;;3.47;0.80;;;;;;;16.17;81.96;100746.50;5590616;31;33995;-68
2022/05/27 03:21:52;;;;;;;1.20;0.80;;;;;;;16.23;81.60;100767.16;5590123;31;34688;-67
2022/05/27 03:25:04;;;;;;;1.52;0.95;;;;;;;16.25;80.93;100765.13;5590490;31;34789;-68
2022/05/27 03:28:25;;;;;;;1.42;0.90;;;;;;;16.31;80.29;100768.87;5590132;31;33937;-68
2022/05/27 03:31:39;;;;;;;2.10;1.00;;;;;;;16.56;80.75;100762.00;5589916;31;34700;-68
2022/05/27 03:34:49;;;;;;;2.53;1.08;;;;;;;16.76;78.09;100764.81;5590059;31;34056;-68
2022/05/27 03:38:04;;;;;;;1.60;0.88;;;;;;;16.89;76.56;100764.91;5590271;31;34037;-68
2022/05/27 03:41:16;;;;;;;3.10;1.00;;;;;;;17.05;75.02;100761.03;5590497;31;33953;-68
2022/05/27 03:44:21;;;;;;;1.77;1.02;;;;;;;17.25;74.59;100770.81;5589076;31;32518;-68
2022/05/27 03:47:23;;;;;;;2.53;0.93;;;;;;;17.44;72.19;100766.50;5589987;31;33986;-68
2022/05/27 03:50:26;;;;;;;1.48;0.93;;;;;;;17.28;74.77;100765.03;5589846;31;33902;-68
2022/05/27 03:57:08;;;;;;;3.65;0.90;;;;;;;17.45;72.12;100767.34;5573018;31;34671;-68
2022/05/27 04:00:13;;;;;;;2.25;0.98;;;;;;;17.53;71.76;100772.50;5589867;31;35318;-68
2022/05/27 04:03:16;;;;;;;0.90;0.70;;;;;;;17.55;71.95;100763.25;5589978;31;33914;-67
2022/05/27 04:06:18;;;;;;;1.87;0.90;;;;;;;17.73;70.23;100770.72;5589083;31;34009;-67
2022/05/27 04:09:23;;;;;;;2.55;0.90;;;;;;;17.96;69.73;100764.97;5589912;31;34001;-68
2022/05/27 04:12:25;;;;;;;1.33;0.90;;;;;;;17.88;70.81;100763.31;5589701;31;35282;-68
2022/05/27 04:15:28;;;;;;;2.33;0.80;;;;;;;17.85;70.71;100763.72;5589689;31;33921;-68
2022/05/27 04:18:30;;;;;;;2.75;1.00;;;;;;;17.92;69.52;100764.53;5589659;31;33988;-68
2022/05/27 04:21:33;;;;;;;4.75;1.00;;;;;;;17.91;69.60;100760.19;5589689;31;33955;-68
2022/05/27 04:24:36;;;;;;;1.50;0.98;;;;;;;18.10;69.07;100762.09;5589668;31;33885;-68
2022/05/27 04:27:39;;;;;;;2.03;0.80;;;;;;;18.22;68.45;100773.00;5589582;31;34886;-68
2022/05/27 04:30:42;;;;;;;2.00;0.82;;;;;;;18.34;67.11;100763.31;5588496;31;34641;-68
2022/05/27 04:33:45;;;;;;;1.40;0.80;;;;;;;18.34;66.41;100759.78;5589546;31;35100;-67
2022/05/27 04:36:47;;;;;;;1.62;0.93;;;;;;;18.29;66.47;100767.62;5589541;31;34119;-68
2022/05/27 04:39:51;;;;;;;3.25;1.10;;;;;;;18.28;66.42;100763.28;5589553;31;34624;-68
2022/05/27 04:42:53;;;;;;;1.10;0.80;;;;;;;18.38;66.20;100763.69;5588562;31;32548;-68
2022/05/27 04:45:56;;;;;;;2.95;0.95;;;;;;;18.51;65.12;100758.28;5589300;31;34042;-67
2022/05/27 04:48:59;;;;;;;2.20;0.70;;;;;;;18.33;65.66;100756.28;5589768;31;34511;-68
2022/05/27 04:52:03;;;;;;;1.98;1.00;;;;;;;18.42;65.16;100757.69;5588557;31;33874;-67
2022/05/27 04:55:08;;;;;;;1.90;0.90;;;;;;;18.57;65.16;100750.25;5589461;31;33969;-68
2022/05/27 04:58:12;;;;;;;0.80;0.80;;;;;;;18.68;64.87;100759.53;5588960;31;34189;-67
2022/05/27 05:01:15;;;;;;;1.65;1.08;;;;;;;18.47;64.78;100747.16;5589289;31;33943;-67
2022/05/27 05:04:17;;;;;;;0.90;0.75;;;;;;;18.37;65.36;100756.66;5588896;31;34691;-67
2022/05/27 05:07:23;;;;;;;0.93;0.73;;;;;;;18.57;64.72;100750.25;5589041;31;33962;-66
2022/05/27 05:10:26;;;;;;;3.30;0.77;;;;;;;18.60;63.40;100751.69;5588584;31;34148;-68
2022/05/27 05:13:30;;;;;;;1.20;0.80;;;;;;;18.72;62.86;100752.69;5588955;31;33907;-68
2022/05/27 05:16:33;;;;;;;1.90;0.85;;;;;;;19.01;62.43;100759.41;5588973;31;33984;-68
2022/05/27 05:19:36;;;;;;;1.60;0.80;;;;;;;19.03;61.73;100760.84;5588818;31;34064;-68
2022/05/27 05:22:39;;;;;;;2.03;0.80;;;;;;;19.14;61.05;100770.09;5588426;31;33864;-69
2022/05/27 05:25:42;;;;;;;1.55;0.80;;;;;;;19.26;60.88;100765.72;5588453;31;34192;-68
2022/05/27 05:28:44;;;;;;;1.20;0.70;;;;;;;19.34;58.74;100762.75;5588162;31;34129;-68
2022/05/27 05:31:47;;;;;;;1.05;0.70;;;;;;;19.53;58.41;100764.53;5588152;31;34372;-67
2022/05/27 05:34:50;;;;;;;2.17;1.02;;;;;;;20.09;58.56;100760.19;5588366;31;33918;-68
2022/05/27 05:37:53;;;;;;;1.75;0.73;;;;;;;20.36;55.77;100764.31;5588241;31;34247;-67
2022/05/27 05:40:55;;;;;;;2.83;0.80;;;;;;;20.49;55.50;100768.72;5587906;31;33908;-68
2022/05/27 05:43:58;;;;;;;1.98;0.80;;;;;;;20.30;53.65;100763.31;5589186;31;34689;-67
2022/05/27 05:47:02;;;;;;;2.17;0.90;;;;;;;19.65;56.21;100761.97;5590555;31;34750;-68
2022/05/27 05:50:06;;;;;;;0.82;0.60;;;;;;;19.61;57.35;100757.22;5590524;31;34020;-68
2022/05/27 05:53:09;;;;;;;2.00;0.82;;;;;;;19.47;57.57;100768.09;5590452;31;33963;-68
2022/05/27 05:56:11;;;;;;;4.03;1.00;;;;;;;19.60;58.74;100764.50;5590642;31;34343;-68
2022/05/27 05:59:15;;;;;;;2.37;0.90;;;;;;;19.74;56.46;100760.69;5589748;31;34323;-68
2022/05/27 06:02:18;;;;;;;4.53;0.80;;;;;;;19.78;56.59;100759.19;5590780;31;34239;-68
2022/05/27 06:05:22;;;;;;;1.58;0.70;;;;;;;19.95;57.31;100756.75;5590990;31;34728;-67
2022/05/27 06:08:24;;;;;;;3.55;0.98;;;;;;;19.87;54.92;100754.34;5590633;31;34643;-67
2022/05/27 06:11:27;;;;;;;1.20;0.62;;;;;;;19.73;56.00;100760.88;5590440;31;33975;-68
2022/05/27 06:14:30;;;;;;;1.08;0.75;;;;;;;19.99;53.89;100757.16;5590393;31;34614;-69
2022/05/27 06:17:35;;;;;;;2.65;0.70;;;;;;;20.16;54.48;100759.06;5590152;31;34609;-68
2022/05/27 06:20:39;;;;;;;2.42;0.90;;;;;;;20.11;53.95;100768.84;5590392;31;33985;-67
2022/05/27 06:23:44;;;;;;;1.17;0.57;;;;;;;20.10;53.77;100761.81;5589518;31;34621;-68
2022/05/27 06:26:46;;;;;;;2.12;0.50;;;;;;;20.33;53.47;100767.47;5589971;31;34778;-68
2022/05/27 06:36:44;;;;;;;0.70;0.57;;;;;;;20.96;51.56;100746.41;5590149;31;33916;-67
2022/05/27 06:39:46;;;;;;;0.98;0.60;;;;;;;21.11;51.04;100738.75;5590076;31;33996;-68
2022/05/27 06:42:49;;;;;;;2.80;0.50;;;;;;;21.15;50.52;100745.37;5589236;31;34244;-67
2022/05/27 06:45:52;;;;;;;1.62;0.60;;;;;;;21.29;49.64;100737.09;5590081;31;33892;-68
2022/05/27 06:48:54;;;;;;;0.93;0.60;;;;;;;21.38;50.79;100743.81;5589239;31;33183;-67
2022/05/27 06:51:57;;;;;;;1.55;0.80;;;;;;;21.50;49.50;100748.19;5589543;31;34013;-67
2022/05/27 06:55:00;;;;;;;1.08;0.70;;;;;;;21.29;49.98;100732.53;5589827;31;34653;-68
2022/05/27 06:58:04;;;;;;;1.85;0.40;;;;;;;21.64;50.10;100732.59;5590042;31;33970;-68
2022/05/27 07:01:08;;;;;;;1.73;1.05;;;;;;;21.81;48.63;100735.47;5590191;31;34123;-69
2022/05/27 07:04:11;;;;;;;0.70;0.40;;;;;;;21.97;49.24;100732.13;5590223;31;33917;-68
2022/05/27 07:07:15;;;;;;;1.10;0.40;;;;;;;22.24;46.09;100730.59;5590373;31;34791;-66
2022/05/27 07:10:17;;;;;;;0.65;0.40;;;;;;;22.32;44.83;100730.22;5590151;31;33991;-68
2022/05/27 07:13:20;;;;;;;1.37;0.50;;;;;;;22.66;45.48;100727.69;5590114;31;35251;-68
2022/05/27 07:16:23;;;;;;;0.88;0.50;;;;;;;22.84;43.88;100724.87;5589363;31;32734;-67
2022/05/27 07:19:26;;;;;;;1.05;0.50;;;;;;;23.02;43.62;100727.41;5590200;31;33839;-67
2022/05/27 07:22:28;;;;;;;1.62;0.50;;;;;;;22.84;44.02;100733.84;5590179;31;34621;-67
2022/05/27 07:25:35;;;;;;;2.15;0.47;;;;;;;23.20;43.56;100723.69;5590279;31;33931;-68
2022/05/27 07:28:41;;;;;;;0.95;0.52;;;;;;;23.33;43.50;100729.63;5589440;31;34262;-67
2022/05/27 07:31:45;;;;;;;3.00;0.40;;;;;;;23.97;41.45;100718.53;5589696;31;34220;-67
2022/05/27 07:34:48;;;;;;;1.10;0.50;;;;;;;24.73;39.83;100709.62;5589938;31;33967;-68
2022/05/27 07:37:51;;;;;;;0.85;0.50;;;;;;;24.80;39.55;100709.41;5589169;31;34032;-69
2022/05/27 07:40:53;;;;;;;1.92;0.60;;;;;;;25.17;39.42;100704.16;5589579;31;34003;-68
2022/05/27 07:43:59;;;;;;;1.85;0.45;;;;;;;24.83;39.50;100701.59;5589727;31;34628;-68
2022/05/27 07:47:02;;;;;;;0.70;0.57;;;;;;;25.22;38.97;100712.38;5590124;31;34997;-69
2022/05/27 07:50:07;;;;;;;0.62;0.40;;;;;;;25.93;38.18;100713.84;5589798;31;34003;-69
2022/05/27 07:53:09;;;;;;;2.03;0.50;;;;;;;25.70;37.88;100709.59;5588915;31;34106;-68
2022/05/27 07:56:12;;;;;;;2.55;0.50;;;;;;;25.59;38.03;100704.31;5589667;31;33945;-68
2022/05/27 07:59:15;;;;;;;1.70;0.50;;;;;;;25.40;38.82;100698.41;5589930;31;34554;-69
2022/05/27 08:02:18;;;;;;;0.75;0.50;;;;;;;26.51;37.06;100701.16;5589424;31;34807;-68
2022/05/27 08:05:23;;;;;;;1.45;0.70;;;;;;;26.76;35.79;100701.28;5588659;31;34135;-67
2022/05/27 08:08:26;;;;;;;2.55;0.60;;;;;;;25.88;36.72;100700.22;5589373;31;34622;-67
2022/05/27 08:11:29;;;;;;;1.25;0.73;;;;;;;25.42;37.71;100691.63;5589511;31;33959;-67
2022/05/27 08:14:32;;;;;;;0.95;0.60;;;;;;;27.21;34.95;100689.69;5588882;31;34098;-68
2022/05/27 08:17:38;;;;;;;2.35;0.50;;;;;;;27.04;34.45;100692.66;5588560;31;33941;-68
2022/05/27 08:20:40;;;;;;;1.25;0.50;;;;;;;27.89;35.34;100702.00;5589393;31;34652;-67
2022/05/27 08:23:43;;;;;;;0.40;0.40;;;;;;;28.25;33.65;100696.53;5588907;31;33959;-66
2022/05/27 08:26:47;;;;;;;0.55;0.35;;;;;;;28.26;33.37;100695.44;5589338;31;35248;-67
2022/05/27 08:29:50;;;;;;;3.22;0.40;;;;;;;27.53;34.66;100697.69;5588989;31;34155;-67
2022/05/27 08:32:52;;;;;;;1.02;0.60;;;;;;;27.17;35.54;100686.69;5588706;31;34841;-67
2022/05/27 08:39:16;;;;;;;2.72;0.70;;;;;;;26.88;35.79;100677.37;5588815;31;33915;-67
2022/05/27 08:42:32;;;;;;;2.85;0.70;;;;;;;27.44;35.00;100678.28;5588246;31;34712;-67
2022/05/27 08:45:52;;;;;;;1.55;0.57;;;;;;;27.82;34.72;100670.69;5588142;31;34680;-67
2022/05/27 08:49:00;;;;;;;1.20;0.50;;;;;;;28.43;34.23;100679.53;5588211;31;33963;-68
2022/05/27 08:52:29;;;;;;;0.98;0.40;;;;;;;29.09;33.12;100666.44;5587918;31;34048;-67
2022/05/27 09:02:56;;;;;;;4.28;0.40;;;;;;;29.69;30.78;100656.12;5588987;31;34524;-66
2022/05/27 09:06:04;;;;;;;2.33;0.52;;;;;;;29.14;31.72;100652.72;5588384;31;34937;-69
2022/05/27 09:09:18;;;;;;;2.28;0.70;;;;;;;28.53;32.92;100657.66;5588971;31;34316;-67
2022/05/27 09:12:34;;;;;;;1.35;0.70;;;;;;;28.82;32.89;100655.91;5588754;31;34626;-67
2022/05/27 09:15:36;;;;;;;2.17;0.50;;;;;;;28.18;33.89;100646.87;5574904;31;32627;-68
2022/05/27 09:18:48;;;;;;;1.15;0.40;;;;;;;29.58;31.74;100639.00;5588219;31;34313;-66
2022/05/27 09:21:57;;;;;;;1.05;0.60;;;;;;;29.60;31.65;100633.25;5587992;31;34068;-68
2022/05/27 09:25:22;;;;;;;0.70;0.60;;;;;;;28.21;32.58;100628.06;5587817;31;33906;-67
2022/05/27 09:28:45;;;;;;;1.98;0.73;;;;;;;29.28;31.56;100631.84;5588349;31;34199;-67
2022/05/27 09:31:57;;;;;;;3.00;0.88;;;;;;;28.26;32.33;100628.06;5587399;31;34101;-67
2022/05/27 09:35:12;;;;;;;1.08;0.50;;;;;;;28.80;32.17;100624.53;5588235;31;33947;-67
2022/05/27 09:38:40;;;;;;;1.15;0.50;;;;;;;28.51;32.41;100614.28;5588179;31;34360;-67
2022/05/27 09:41:55;;;;;;;0.88;0.60;;;;;;;29.01;32.31;100614.28;5588164;31;34048;-67
2022/05/27 09:44:58;;;;;;;4.72;0.75;;;;;;;29.18;33.40;100610.06;5589092;31;34099;-66
2022/05/27 09:48:06;;;;;;;1.52;0.60;;;;;;;29.38;32.40;100606.37;5592864;31;34291;-66
2022/05/27 09:51:12;;;;;;;0.62;0.50;;;;;;;29.04;33.07;100606.34;5590185;31;33866;-67
2022/05/27 09:54:35;;;;;;;1.33;0.60;;;;;;;29.82;30.54;100595.28;5590673;31;33871;-66
2022/05/27 09:57:57;;;;;;;4.53;0.65;;;;;;;30.13;30.79;100588.38;5588197;31;34121;-67
2022/05/27 10:01:21;;;;;;;2.25;0.60;;;;;;;29.82;30.66;100594.47;5588350;31;34592;-69
2022/05/27 10:04:24;;;;;;;1.02;0.50;;;;;;;30.03;31.00;100585.75;5587116;31;32988;-68
2022/05/27 10:07:39;;;;;;;1.85;0.50;;;;;;;29.05;31.83;100593.53;5588232;31;34654;-68
2022/05/27 10:10:42;;;;;;;0.93;0.60;;;;;;;30.27;30.33;100577.53;5587747;31;35488;-69
2022/05/27 10:13:47;;;;;;;4.03;0.70;;;;;;;31.89;29.19;100583.22;5587865;31;34485;-68
2022/05/27 10:16:58;;;;;;;1.02;0.60;;;;;;;30.69;30.02;100568.50;5587232;31;34408;-68
2022/05/27 10:20:31;;;;;;;0.98;0.50;;;;;;;30.06;30.96;100574.25;5587857;31;34470;-68
2022/05/27 10:23:37;;;;;;;3.65;0.60;;;;;;;28.45;33.14;100566.28;5587808;31;34678;-67
2022/05/27 10:26:40;;;;;;;2.12;0.50;;;;;;;29.06;32.72;100559.59;5587460;31;34084;-68
2022/05/27 10:30:02;;;;;;;0.80;0.47;;;;;;;29.72;31.44;100570.78;5588057;31;34095;-68
2022/05/27 10:33:21;;;;;;;0.40;0.40;;;;;;;28.20;33.41;100560.94;5589194;31;34576;-68
2022/05/27 10:36:31;;;;;;;1.00;0.60;;;;;;;28.90;31.82;100542.56;5589587;31;34007;-67
2022/05/27 10:40:16;;;;;;;0.90;0.52;;;;;;;28.93;32.00;100541.97;5590266;31;34430;-67
2022/05/27 10:43:44;;;;;;;2.17;0.68;;;;;;;30.16;29.80;100526.78;5573462;31;34149;-68
2022/05/27 10:46:57;;;;;;;3.00;0.55;;;;;;;30.52;29.55;100527.12;5590089;31;33893;-68
2022/05/27 10:50:32;;;;;;;0.88;0.50;;;;;;;32.18;27.23;100526.09;5590316;31;34048;-68
2022/05/27 10:54:04;;;;;;;1.10;0.45;;;;;;;30.88;29.05;100513.69;5589533;31;34285;-68
2022/05/27 11:04:21;;;;;;;1.05;0.43;;;;;;;31.94;27.09;100503.53;5590197;31;34024;-68
2022/05/27 11:07:58;;;;;;;1.67;0.50;;;;;;;31.87;27.68;100489.41;5590256;31;35193;-68
2022/05/27 11:11:41;;;;;;;0.43;0.30;;;;;;;31.80;27.40;100503.53;5589491;31;34642;-69
2022/05/27 11:15:11;;;;;;;1.00;0.43;;;;;;;32.63;26.57;100490.47;5590091;31;33907;-69
2022/05/27 11:18:28;;;;;;;0.95;0.40;;;;;;;30.29;29.25;100482.28;5589303;31;33305;-67
2022/05/27 11:21:36;;;;;;;0.40;0.40;;;;;;;29.54;31.10;100470.34;5590156;31;34620;-68
2022/05/27 11:24:54;;;;;;;1.12;0.40;;;;;;;31.20;28.38;100469.03;5590411;31;34854;-69
2022/05/27 11:28:12;;;;;;;1.15;0.57;;;;;;;32.10;28.00;100457.31;5588850;31;32426;-67
2022/05/27 11:31:52;;;;;;;1.87;0.60;;;;;;;30.16;30.06;100450.19;5588753;31;34022;-67
2022/05/27 11:35:16;;;;;;;5.45;0.88;;;;;;;31.77;28.74;100456.69;5589183;31;34052;-69
2022/05/27 11:38:28;;;;;;;1.40;0.60;;;;;;;32.02;27.56;100444.34;5589806;31;33970;-67
2022/05/27 11:42:10;;;;;;;0.98;0.60;;;;;;;30.84;28.81;100433.22;5589659;31;34459;-68
2022/05/27 11:45:21;;;;;;;0.90;0.60;;;;;;;33.05;26.78;100423.19;5590017;31;34039;-67
2022/05/27 11:48:55;;;;;;;0.82;0.60;;;;;;;32.40;26.98;100428.38;5589665;31;34336;-67
2022/05/27 11:52:04;;;;;;;1.05;0.50;;;;;;;31.57;28.51;100426.94;5588881;31;34835;-68
2022/05/27 11:55:22;;;;;;;1.92;0.47;;;;;;;30.21;30.17;100404.38;5589690;31;33974;-67
2022/05/27 11:58:28;;;;;;;1.00;0.60;;;;;;;30.48;30.70;100409.19;5589051;31;34183;-68
2022/05/27 12:01:39;;;;;;;1.60;0.60;;;;;;;30.89;29.77;100405.72;5589525;31;33891;-68
2022/05/27 12:05:19;;;;;;;1.35;0.82;;;;;;;31.05;29.47;100402.44;5588946;31;34633;-68
2022/05/27 12:08:21;;;;;;;1.23;0.70;;;;;;;30.88;29.81;100393.97;5589505;31;34389;-68
2022/05/27 12:11:46;;;;;;;2.53;0.57;;;;;;;29.59;31.42;100400.03;5588316;31;33270;-67
2022/05/27 12:15:09;;;;;;;0.88;0.73;;;;;;;31.86;28.56;100381.56;5589318;31;34640;-68
2022/05/27 12:18:23;;;;;;;0.90;0.60;;;;;;;31.19;29.81;100374.22;5589360;31;33845;-67
2022/05/27 12:21:33;;;;;;;1.20;0.60;;;;;;;31.06;29.78;100370.38;5589504;31;33952;-67
2022/05/27 12:24:47;;;;;;;3.40;0.75;;;;;;;35.26;24.85;100370.47;5588465;31;33270;-67
2022/05/27 12:27:51;;;;;;;1.55;0.75;;;;;;;34.81;24.51;100361.88;5588300;31;32656;-66
2022/05/27 12:30:56;;;;;;;1.17;0.70;;;;;;;31.55;28.76;100371.56;5589211;31;33916;-65
2022/05/27 12:34:27;;;;;;;1.15;0.65;;;;;;;29.68;31.79;100349.03;5589428;31;33860;-68
2022/05/27 12:37:51;;;;;;;1.85;0.70;;;;;;;28.67;34.16;100335.72;5589156;31;34078;-69
2022/05/27 12:41:03;;;;;;;0.90;0.70;;;;;;;30.56;31.10;100339.22;5589478;31;33896;-68
2022/05/27 12:44:15;;;;;;;1.90;0.90;;;;;;;34.27;25.97;100341.41;5588710;31;34663;-67
2022/05/27 12:47:28;;;;;;;2.25;0.50;;;;;;;32.19;28.45;100324.59;5589341;31;34552;-67
2022/05/27 12:50:45;;;;;;;1.00;0.70;;;;;;;30.03;31.39;100322.31;5588926;31;33874;-67
2022/05/27 12:53:49;;;;;;;1.42;0.80;;;;;;;29.82;32.06;100323.72;5588559;31;33952;-67
2022/05/27 13:03:53;;;;;;;1.35;0.80;;;;;;;35.57;24.23;100305.84;5588529;31;32600;-66
2022/05/27 13:07:05;;;;;;;2.05;0.62;;;;;;;34.53;25.64;100300.00;5589009;31;33875;-66
2022/05/27 13:10:17;;;;;;;1.52;0.73;;;;;;;35.88;24.06;100302.69;5588902;31;33920;-67
2022/05/27 13:13:22;;;;;;;0.95;0.70;;;;;;;36.17;23.49;100299.81;5588490;31;34437;-67
2022/05/27 13:16:31;;;;;;;0.88;0.68;;;;;;;33.08;27.13;100277.66;5588619;31;34767;-67
2022/05/27 13:19:48;;;;;;;0.60;0.50;;;;;;;30.80;31.06;100284.28;5588734;31;35216;-66
2022/05/27 13:23:14;;;;;;;1.35;0.70;;;;;;;32.74;27.97;100267.37;5588341;31;34256;-68
2022/05/27 13:26:58;;;;;;;2.40;1.05;;;;;;;35.83;23.92;100258.72;5587606;31;32989;-67
2022/05/27 13:30:10;;;;;;;2.05;0.98;;;;;;;37.09;22.63;100249.63;5588242;31;34868;-68
2022/05/27 13:33:13;;;;;;;3.35;0.62;;;;;;;39.08;20.78;100257.50;5587937;31;34769;-68
2022/05/27 13:36:22;;;;;;;0.85;0.50;;;;;;;40.67;18.95;100253.53;5587765;31;33059;-67
2022/05/27 13:39:28;;;;;;;1.00;0.70;;;;;;;39.78;19.30;100248.31;5587594;31;33955;-68
2022/05/27 13:42:41;;;;;;;1.80;0.75;;;;;;;38.97;19.80;100239.78;5588593;31;33886;-66
2022/05/27 13:45:52;;;;;;;2.72;0.52;;;;;;;35.95;23.49;100233.91;5588355;31;33986;-67
2022/05/27 13:49:36;;;;;;;3.65;0.62;;;;;;;35.54;24.93;100232.81;5587897;31;34596;-67
2022/05/27 13:52:39;;;;;;;1.92;0.60;;;;;;;34.95;24.74;100220.25;5587166;31;32667;-67
2022/05/27 13:55:42;;;;;;;0.98;0.50;;;;;;;31.67;29.07;100210.03;5587814;31;34559;-67
2022/05/27 13:58:52;;;;;;;2.45;0.80;;;;;;;31.69;29.35;100199.56;5587786;31;33965;-67
2022/05/27 14:02:00;;;;;;;1.80;0.82;;;;;;;34.50;25.59;100197.94;5587476;31;34265;-66
2022/05/27 14:05:09;;;;;;;2.37;0.80;;;;;;;33.34;27.01;100194.44;5589261;31;34018;-66
2022/05/27 14:08:17;;;;;;;2.15;0.70;;;;;;;31.69;29.65;100185.87;5589703;31;34620;-66
2022/05/27 14:11:30;;;;;;;5.62;0.77;;;;;;;33.83;26.34;100184.88;5589826;31;34061;-66
2022/05/27 14:14:51;;;;;;;6.55;0.68;;;;;;;32.96;28.23;100185.97;5590208;31;34700;-66
2022/05/27 14:17:56;;;;;;;1.48;0.80;;;;;;;33.33;26.94;100171.63;5590677;31;34300;-67
2022/05/27 14:24:29;;;;;;;0.90;0.60;;;;;;;29.11;33.63;100166.19;5589157;31;32434;-67
2022/05/27 14:27:31;;;;;;;1.90;0.65;;;;;;;27.89;36.27;100164.03;5589582;31;33984;-66
2022/05/27 14:30:38;;;;;;;0.90;0.80;;;;;;;28.04;35.97;100151.06;5589750;31;34710;-67
2022/05/27 14:33:50;;;;;;;1.12;0.60;;;;;;;28.43;35.52;100150.13;5589106;31;32628;-66
2022/05/27 14:37:22;;;;;;;0.88;0.75;;;;;;;28.70;36.34;100146.78;5590056;31;34717;-67
2022/05/27 14:40:55;;;;;;;4.95;0.60;;;;;;;28.97;34.61;100151.63;5576476;31;34033;-65
2022/05/27 14:44:03;;;;;;;2.35;0.80;;;;;;;30.15;33.64;100142.06;5577241;31;34326;-66
2022/05/27 14:47:23;;;;;;;1.87;0.90;;;;;;;34.38;26.66;100141.59;5589347;31;34021;-66
2022/05/27 14:50:33;;;;;;;0.95;0.60;;;;;;;38.59;21.27;100137.88;5590026;31;34381;-67
2022/05/27 14:53:36;;;;;;;4.90;1.10;;;;;;;38.00;22.29;100139.97;5588890;31;34545;-66
2022/05/27 14:56:39;;;;;;;3.50;0.82;;;;;;;35.00;24.96;100120.81;5589315;31;34522;-67
2022/05/27 15:00:07;;;;;;;1.58;0.93;;;;;;;36.01;24.04;100111.06;5589120;31;34832;-68
2022/05/27 15:03:32;;;;;;;;;;;;;;;34.26;25.59;100111.22;5583174;31;35188;-70
2022/05/27 15:06:39;;;;;;;1.45;0.85;;;;;;;36.27;23.57;100108.78;5589593;31;34894;-67
2022/05/27 15:09:42;;;;;;;7.15;0.77;;;;;;;38.04;21.51;100110.41;5588886;31;32634;-66
2022/05/27 15:12:45;;;;;;;1.65;0.70;;;;;;;37.86;21.52;100112.66;5589810;31;34582;-67
2022/05/27 15:15:49;;;;;;;2.25;0.80;;;;;;;38.13;21.38;100106.28;5589300;31;33911;-67
2022/05/27 15:18:58;;;;;;;1.00;0.80;;;;;;;36.42;23.06;100099.00;5589549;31;34842;-67
2022/05/27 15:22:07;;;;;;;5.18;0.90;;;;;;;36.63;22.62;100096.12;5589751;31;34787;-67
2022/05/27 15:25:15;;;;;;;2.92;0.70;;;;;;;30.87;30.66;100085.53;5589445;31;33899;-68
2022/05/27 15:35:11;;;;;;;1.92;0.90;;;;;;;27.80;36.15;100089.41;5589116;31;34126;-67